tumbleweedhouses.com alexa rank chart, tumbleweedhouses.com alexa rank daily changes

tumbleweedhouses.com alexa rank chart, tumbleweedhouses.com alexa rank daily changes

tumbleweedhouses.com
Actual rank:
137 615

RANK HISTORY

Date Rank Diff
2017/12/14 137 615 +1 605
2017/12/13 136 010 +164
2017/12/12 135 846 -3 693
2017/12/11 139 539 +2 625
2017/12/10 136 914 -330
2017/12/09 137 244 -2 516
2017/12/08 139 760 +44
2017/12/07 139 716 +2 743
2017/12/06 136 973 -176
2017/12/05 137 149 -530
2017/12/04 137 679 -1 633
2017/12/03 139 312 +757
2017/12/02 138 555 -3 138
2017/12/01 141 693 -6 715
2017/11/30 148 408 -1 295
2017/11/29 149 703 -1 491
2017/11/28 151 194 +1 551
2017/11/27 149 643 +1 230
2017/11/26 148 413 +1 131
2017/11/25 147 282 +1 437
2017/11/24 145 845 +1 487
2017/11/23 144 358 +1 997
2017/11/22 142 361 -1 974
2017/11/21 144 335 -7 232
2017/11/20 151 567 -658
2017/11/19 152 225 -3 709
2017/11/18 155 934 +5 504
2017/11/17 150 430 +4 063
2017/11/16 146 367 +1 759
2017/11/15 144 608 +388
2017/11/14 144 220 +9
2017/11/13 144 211 -839
2017/11/12 145 050 +1 588
2017/11/11 143 462 -272
2017/11/10 143 734 +1 124
2017/11/09 142 610 +2 611
2017/11/08 139 999 -2 412
2017/11/07 142 411 -4 121
2017/11/06 146 532 +808
2017/11/05 145 724 +2 312
2017/11/04 143 412 +1 776
2017/11/03 141 636 +101
2017/11/02 141 535 -1 805
2017/11/01 143 340 +1 682
2017/10/31 141 658 -2 723
2017/10/30 144 381 -117
2017/10/29 144 498 -162
2017/10/28 144 660 -2 356
2017/10/27 147 016 -431
2017/10/26 147 447 +696
2017/10/25 146 751 +3 315
2017/10/24 143 436 -4 878
2017/10/23 148 314 -203
2017/10/22 148 517 -113
2017/10/21 148 630 +1 670
2017/10/20 146 960 -3 984
2017/10/19 150 944 +2 427
2017/10/18 148 517 -2 923
2017/10/17 151 440 +342
2017/10/16 151 098

WIDGET FOR YOUR SITE

DOMAINS WITH THE NEAREST RANK

Domain Rank
dolphinfitness.co.uk 137 610
freejapaneselessons.com 137 611
mehrad-co.com 137 612
edperformance.com 137 613
photodoto.com 137 614
tumbleweedhouses.com 137 615
audiokinetic.com 137 616
kissfm.es 137 617
valuedopinions.com.au 137 618
must.edu.eg 137 619
naruto-shippuuden.ru 137 620

DOMAINS WITH THE NEAREST RANK BY TLD .com

Domain Rank
halfpasthuman.com 137 609
freejapaneselessons.com 137 611
mehrad-co.com 137 612
edperformance.com 137 613
photodoto.com 137 614
tumbleweedhouses.com 137 615
audiokinetic.com 137 616
merongshop.com 137 621
isitnormal.com 137 622
upliftgames.com 137 626
has-jobs.com 137 631